createdAt,value
2023-03-13T00:01:47.030Z,0.41
2023-03-13T00:04:17.243Z,0.37
2023-03-13T00:06:47.426Z,0.39
2023-03-13T00:09:17.721Z,0.40
2023-03-13T00:11:47.865Z,0.37
2023-03-13T00:14:18.075Z,0.39
2023-03-13T00:16:48.276Z,0.30
2023-03-13T00:19:18.446Z,0.35
2023-03-13T00:21:48.643Z,0.38
2023-03-13T00:24:18.802Z,0.37
2023-03-13T00:26:48.977Z,0.42
2023-03-13T00:29:19.074Z,0.37
2023-03-13T00:31:49.389Z,0.43
2023-03-13T00:34:19.703Z,0.44
2023-03-13T00:36:49.883Z,0.43
2023-03-13T00:39:19.971Z,0.37
2023-03-13T00:41:50.352Z,0.43
2023-03-13T00:44:20.472Z,0.41
2023-03-13T00:46:50.626Z,0.34
2023-03-13T00:49:20.794Z,0.32
2023-03-13T00:51:50.976Z,0.34
2023-03-13T00:54:21.114Z,0.27
2023-03-13T00:56:51.275Z,0.23
2023-03-13T00:59:21.573Z,0.25
2023-03-13T01:01:51.734Z,0.24
2023-03-13T01:04:21.958Z,0.22
2023-03-13T01:06:52.200Z,0.23
2023-03-13T01:09:24.184Z,0.22
2023-03-13T01:11:54.339Z,0.24
2023-03-13T01:14:24.421Z,0.24
2023-03-13T01:16:54.810Z,0.26
2023-03-13T01:19:24.959Z,0.24
2023-03-13T01:21:55.199Z,0.24
2023-03-13T01:24:25.474Z,0.24
2023-03-13T01:26:55.991Z,0.26
2023-03-13T01:29:26.184Z,0.25
2023-03-13T01:31:56.346Z,0.29
2023-03-13T01:34:26.491Z,0.30
2023-03-13T01:36:56.661Z,0.31
2023-03-13T01:39:26.818Z,0.32
2023-03-13T01:41:57.087Z,0.27
2023-03-13T01:44:28.044Z,0.32
2023-03-13T01:46:58.240Z,0.31
2023-03-13T01:49:36.317Z,0.29
2023-03-13T01:52:10.808Z,0.29
2023-03-13T01:54:56.838Z,0.30
2023-03-13T01:57:34.038Z,0.32
2023-03-13T02:02:43.379Z,0.30
2023-03-13T02:05:15.545Z,0.26
2023-03-13T02:07:54.481Z,0.25
2023-03-13T02:10:26.784Z,0.21
2023-03-13T02:12:58.262Z,0.22
2023-03-13T02:15:30.676Z,0.17
2023-03-13T02:18:00.942Z,0.19
2023-03-13T02:20:31.406Z,0.16
2023-03-13T02:23:40.185Z,0.20
2023-03-13T02:26:10.333Z,0.19
2023-03-13T02:28:40.573Z,0.20
2023-03-13T02:31:11.239Z,0.14
2023-03-13T02:33:44.869Z,0.23
2023-03-13T02:36:17.268Z,0.23
2023-03-13T02:39:02.780Z,0.27
2023-03-13T02:41:35.363Z,0.29
2023-03-13T02:44:06.108Z,0.32
2023-03-13T02:46:52.790Z,0.32
2023-03-13T02:49:25.896Z,0.34
2023-03-13T02:52:04.144Z,0.33
2023-03-13T02:54:38.338Z,0.37
2023-03-13T02:57:08.509Z,0.42
2023-03-13T02:59:38.589Z,0.41
2023-03-13T03:02:09.019Z,0.45
2023-03-13T03:04:39.199Z,0.48
2023-03-13T03:07:09.402Z,0.48
2023-03-13T03:09:39.626Z,0.49
2023-03-13T03:12:10.221Z,0.51
2023-03-13T03:14:40.756Z,0.55
2023-03-13T03:17:11.355Z,0.54
2023-03-13T03:19:41.516Z,0.56
2023-03-13T03:22:11.694Z,0.65
2023-03-13T03:24:41.889Z,0.61
2023-03-13T03:27:12.079Z,0.60
2023-03-13T03:29:42.355Z,0.66
2023-03-13T03:32:12.473Z,0.70
2023-03-13T03:34:42.724Z,0.69
2023-03-13T03:37:12.849Z,0.63
2023-03-13T03:39:43.056Z,0.72
2023-03-13T03:42:13.184Z,0.65
2023-03-13T03:44:43.313Z,0.72
2023-03-13T03:47:13.560Z,0.73
2023-03-13T03:49:43.745Z,0.73
2023-03-13T03:52:13.996Z,0.72
2023-03-13T03:54:44.133Z,0.75
2023-03-13T03:57:14.422Z,0.73
2023-03-13T03:59:44.625Z,0.72
2023-03-13T04:02:14.860Z,0.71
2023-03-13T04:04:45.289Z,0.70
2023-03-13T04:07:15.402Z,0.71
2023-03-13T04:09:45.567Z,0.69
2023-03-13T04:12:15.851Z,0.62
2023-03-13T04:14:46.015Z,0.71
2023-03-13T04:17:16.375Z,0.68
2023-03-13T04:19:46.624Z,0.65
2023-03-13T04:22:16.739Z,0.69
2023-03-13T04:24:46.968Z,0.73
2023-03-13T04:27:17.348Z,0.74
2023-03-13T04:29:47.517Z,0.77
2023-03-13T04:32:17.942Z,0.68
2023-03-13T04:34:48.034Z,0.78
2023-03-13T04:37:18.838Z,0.79
2023-03-13T04:39:49.064Z,0.76
2023-03-13T04:42:19.318Z,0.77
2023-03-13T04:44:49.619Z,0.78
2023-03-13T04:47:20.134Z,0.73
2023-03-13T04:49:50.363Z,0.76
2023-03-13T04:52:21.259Z,0.78
2023-03-13T04:54:51.355Z,0.73
2023-03-13T04:57:21.486Z,0.73
2023-03-13T04:59:51.627Z,0.73
2023-03-13T05:02:21.846Z,0.73
2023-03-13T05:04:52.430Z,0.73
2023-03-13T05:07:22.744Z,0.64
2023-03-13T05:09:52.888Z,0.71
2023-03-13T05:12:23.234Z,0.72
2023-03-13T05:14:53.907Z,0.76
2023-03-13T05:17:24.108Z,0.76
2023-03-13T05:19:54.171Z,0.76
2023-03-13T05:22:24.395Z,0.79
2023-03-13T05:24:54.574Z,0.81
2023-03-13T05:27:24.686Z,0.84
2023-03-13T05:29:54.836Z,0.88
2023-03-13T05:32:25.069Z,0.81
2023-03-13T05:34:55.353Z,0.85
2023-03-13T05:37:25.446Z,0.86
2023-03-13T05:39:55.725Z,0.90
2023-03-13T05:42:27.067Z,0.95
2023-03-13T05:44:57.288Z,0.92
2023-03-13T05:47:27.498Z,0.92
2023-03-13T05:49:57.729Z,0.95
2023-03-13T05:52:28.290Z,0.97
2023-03-13T05:54:58.597Z,1.01
2023-03-13T05:57:28.757Z,0.99
2023-03-13T05:59:59.785Z,1.03
2023-03-13T06:02:30.046Z,1.07
2023-03-13T06:05:00.326Z,1.09
2023-03-13T06:07:30.514Z,1.08
2023-03-13T06:10:00.668Z,1.09
2023-03-13T06:12:31.221Z,1.11
2023-03-13T06:15:01.339Z,1.14
2023-03-13T06:17:31.500Z,1.16
2023-03-13T06:20:01.678Z,1.16
2023-03-13T06:22:32.403Z,1.14
2023-03-13T06:25:02.511Z,1.16
2023-03-13T06:27:32.770Z,1.17
2023-03-13T06:30:04.732Z,1.21
2023-03-13T06:32:35.036Z,1.23
2023-03-13T06:35:06.332Z,1.26
2023-03-13T06:37:36.854Z,1.29
2023-03-13T06:40:07.690Z,1.21
2023-03-13T06:42:37.749Z,1.31
2023-03-13T06:45:08.586Z,1.33
2023-03-13T06:47:38.885Z,1.33
2023-03-13T06:50:09.802Z,1.35
2023-03-13T06:52:43.943Z,1.32
2023-03-13T06:55:14.844Z,1.35
2023-03-13T06:57:45.043Z,1.39
2023-03-13T07:00:15.474Z,1.43
2023-03-13T07:02:45.644Z,1.41
2023-03-13T07:05:15.979Z,1.43
2023-03-13T07:07:46.265Z,1.44
2023-03-13T07:10:16.991Z,1.49
2023-03-13T07:12:47.219Z,1.43
2023-03-13T07:15:17.425Z,1.51
2023-03-13T07:17:47.567Z,1.53
2023-03-13T07:20:17.944Z,1.53
2023-03-13T07:22:52.644Z,1.56
2023-03-13T07:25:22.808Z,1.58
2023-03-13T07:27:53.572Z,1.65
2023-03-13T07:30:23.680Z,1.68
2023-03-13T07:32:53.958Z,1.73
2023-03-13T07:35:25.943Z,1.72
2023-03-13T07:37:56.093Z,1.79
2023-03-13T07:40:26.248Z,1.83
2023-03-13T07:42:56.438Z,1.84
2023-03-13T07:45:26.552Z,1.89
2023-03-13T07:47:56.721Z,1.95
2023-03-13T07:50:27.016Z,1.98
2023-03-13T07:52:57.862Z,1.96
2023-03-13T07:55:28.023Z,1.99
2023-03-13T07:57:58.169Z,1.96
2023-03-13T08:00:28.306Z,1.98
2023-03-13T08:02:58.484Z,1.97
2023-03-13T08:05:28.612Z,1.93
2023-03-13T08:07:58.762Z,1.94
2023-03-13T08:10:28.870Z,1.98
2023-03-13T08:12:59.218Z,2.03
2023-03-13T08:15:29.384Z,2.01
2023-03-13T08:17:59.636Z,2.00
2023-03-13T08:20:29.749Z,2.05
2023-03-13T08:23:00.116Z,2.06
2023-03-13T08:25:30.327Z,2.14
2023-03-13T08:28:02.408Z,2.14
2023-03-13T08:30:32.681Z,2.16
2023-03-13T08:33:02.906Z,2.21
2023-03-13T08:35:33.054Z,2.23
2023-03-13T08:38:03.254Z,2.25
2023-03-13T08:40:33.451Z,2.31
2023-03-13T08:43:03.636Z,2.33
2023-03-13T08:45:33.849Z,2.31
2023-03-13T08:48:04.171Z,2.35
2023-03-13T08:50:34.264Z,2.36
2023-03-13T08:53:04.388Z,2.40
2023-03-13T08:55:34.562Z,2.42
2023-03-13T08:58:04.757Z,2.48
2023-03-13T09:00:35.003Z,2.57
2023-03-13T09:03:05.241Z,2.56
2023-03-13T09:05:54.632Z,2.58
2023-03-13T09:08:26.571Z,2.52
2023-03-13T09:11:02.243Z,2.56
2023-03-13T09:13:34.956Z,2.59
2023-03-13T09:16:08.536Z,2.69
2023-03-13T09:18:39.811Z,2.65
2023-03-13T09:21:13.813Z,2.71
2023-03-13T09:23:44.239Z,2.76
2023-03-13T09:26:17.384Z,2.81
2023-03-13T09:28:47.645Z,2.85
2023-03-13T09:31:23.488Z,2.86
2023-03-13T09:33:54.650Z,2.91
2023-03-13T09:36:25.847Z,2.97
2023-03-13T09:38:58.731Z,2.96
2023-03-13T09:41:39.292Z,3.07
2023-03-13T09:44:34.159Z,3.08
2023-03-13T09:47:18.638Z,3.19
2023-03-13T09:50:01.073Z,3.24
2023-03-13T09:52:40.708Z,3.28
2023-03-13T09:55:23.798Z,3.29
2023-03-13T09:57:57.214Z,3.28
2023-03-13T10:00:39.342Z,3.34
2023-03-13T10:03:24.057Z,3.39
2023-03-13T10:05:58.805Z,3.35
2023-03-13T10:08:34.639Z,3.39
2023-03-13T10:11:23.564Z,3.42
2023-03-13T10:14:01.586Z,3.43
2023-03-13T10:16:39.230Z,3.45
2023-03-13T10:19:16.836Z,3.44
2023-03-13T10:21:52.946Z,3.48
2023-03-13T10:24:42.615Z,3.58
2023-03-13T10:27:15.082Z,3.59
2023-03-13T10:29:45.342Z,3.65
2023-03-13T10:32:17.363Z,3.66
2023-03-13T10:34:55.986Z,3.74
2023-03-13T10:37:29.937Z,3.75
2023-03-13T10:40:23.062Z,3.79
2023-03-13T10:42:59.712Z,3.82
2023-03-13T10:45:35.977Z,3.88
2023-03-13T10:48:20.622Z,3.89
2023-03-13T10:50:54.404Z,3.85
2023-03-13T10:53:30.679Z,3.86
2023-03-13T10:56:20.122Z,3.87
2023-03-13T10:58:53.199Z,3.85
2023-03-13T11:01:45.416Z,3.89
2023-03-13T11:04:39.236Z,3.90
2023-03-13T11:07:38.251Z,3.83
2023-03-13T11:10:17.445Z,3.96
2023-03-13T11:12:59.247Z,3.98
2023-03-13T11:16:04.535Z,4.00
2023-03-13T11:19:00.700Z,4.02
2023-03-13T11:22:15.319Z,4.06
2023-03-13T11:25:22.659Z,4.14
2023-03-13T11:28:23.358Z,4.13
2023-03-13T11:31:18.515Z,4.21
2023-03-13T11:33:57.700Z,4.13
2023-03-13T11:36:43.014Z,4.19
2023-03-13T11:39:34.326Z,4.22
2023-03-13T11:42:16.829Z,4.24
2023-03-13T11:45:03.720Z,4.28
2023-03-13T11:47:53.640Z,4.22
2023-03-13T11:50:41.550Z,4.30
2023-03-13T11:53:42.217Z,4.27
2023-03-13T11:56:31.544Z,4.28
2023-03-13T11:59:26.638Z,4.33
2023-03-13T12:02:02.976Z,4.32
2023-03-13T12:04:59.824Z,4.34
2023-03-13T12:07:46.418Z,4.34
2023-03-13T12:10:27.671Z,4.34
2023-03-13T12:13:07.502Z,4.28
2023-03-13T12:15:42.392Z,4.35
2023-03-13T12:18:20.413Z,4.34
2023-03-13T12:20:57.470Z,4.36
2023-03-13T12:23:45.949Z,4.40
2023-03-13T12:26:19.522Z,4.42
2023-03-13T12:29:07.742Z,4.42
2023-03-13T12:31:47.681Z,4.40
2023-03-13T12:34:27.960Z,4.44
2023-03-13T12:37:35.749Z,4.46
2023-03-13T12:40:22.264Z,4.45
2023-03-13T12:43:10.722Z,4.47
2023-03-13T12:46:07.396Z,4.48
2023-03-13T12:49:04.918Z,4.51
2023-03-13T12:51:40.551Z,4.51
2023-03-13T12:54:41.696Z,4.56
2023-03-13T12:57:56.789Z,4.57
2023-03-13T13:00:30.549Z,4.55
2023-03-13T13:03:19.991Z,4.58
2023-03-13T13:06:11.702Z,4.61
2023-03-13T13:08:53.513Z,4.64
2023-03-13T13:11:43.802Z,4.69
2023-03-13T13:14:37.549Z,4.67
2023-03-13T13:17:26.333Z,4.66
2023-03-13T13:19:57.432Z,4.61
2023-03-13T13:22:37.091Z,4.65
2023-03-13T13:25:10.476Z,4.64
2023-03-13T13:27:40.635Z,4.63
2023-03-13T13:30:19.693Z,4.65
2023-03-13T13:33:16.529Z,4.64
2023-03-13T13:36:07.568Z,4.65
2023-03-13T13:38:42.369Z,4.65
2023-03-13T13:41:12.420Z,4.70
2023-03-13T13:43:48.128Z,4.71
2023-03-13T13:46:33.629Z,4.76
2023-03-13T13:49:09.573Z,4.78
2023-03-13T13:51:43.315Z,4.79
2023-03-13T13:54:33.814Z,4.83
2023-03-13T13:57:19.121Z,4.84
2023-03-13T14:00:00.097Z,4.85
2023-03-13T14:02:44.950Z,4.85
2023-03-13T14:05:22.311Z,4.87
2023-03-13T14:08:14.923Z,4.86
2023-03-13T14:11:08.855Z,4.86
2023-03-13T14:13:38.918Z,4.90
2023-03-13T14:16:30.061Z,4.92
2023-03-13T14:19:00.181Z,4.85
2023-03-13T14:21:30.621Z,4.86
2023-03-13T14:24:00.744Z,4.90
2023-03-13T14:26:30.917Z,4.86
2023-03-13T14:29:05.447Z,4.93
2023-03-13T14:31:39.419Z,4.94
2023-03-13T14:34:13.031Z,5.00
2023-03-13T14:37:11.176Z,5.00
2023-03-13T14:39:49.391Z,5.01
2023-03-13T14:42:19.863Z,5.02
2023-03-13T14:44:54.463Z,5.03
2023-03-13T14:47:28.985Z,5.06
2023-03-13T14:50:01.605Z,5.06
2023-03-13T14:52:34.156Z,5.08
2023-03-13T14:55:27.886Z,5.12
2023-03-13T14:58:05.313Z,5.12
2023-03-13T15:00:41.619Z,5.16
2023-03-13T15:03:16.912Z,5.20
2023-03-13T15:06:04.123Z,5.18
2023-03-13T15:08:37.753Z,5.24
2023-03-13T15:11:26.710Z,5.23
2023-03-13T15:13:57.403Z,5.26
2023-03-13T15:16:29.488Z,5.31
2023-03-13T15:18:59.727Z,5.38
2023-03-13T15:21:33.707Z,5.44
2023-03-13T15:24:13.584Z,5.45
2023-03-13T15:26:44.212Z,5.50
2023-03-13T15:29:14.386Z,5.61
2023-03-13T15:31:44.951Z,5.67
2023-03-13T15:34:16.217Z,5.71
2023-03-13T15:36:46.400Z,5.74
2023-03-13T15:39:20.692Z,5.74
2023-03-13T15:41:51.132Z,5.78
2023-03-13T15:44:21.286Z,5.81
2023-03-13T15:46:51.474Z,5.85
2023-03-13T15:49:21.674Z,5.83
2023-03-13T15:51:51.854Z,5.90
2023-03-13T15:54:21.986Z,5.93
2023-03-13T15:56:53.102Z,5.97
2023-03-13T15:59:23.168Z,6.00
2023-03-13T16:01:53.339Z,6.00
2023-03-13T16:04:24.557Z,6.00
2023-03-13T16:06:54.824Z,6.02
2023-03-13T16:09:25.028Z,6.03
2023-03-13T16:11:55.174Z,6.04
2023-03-13T16:14:25.384Z,6.05
2023-03-13T16:16:55.703Z,6.06
2023-03-13T16:19:25.924Z,6.13
2023-03-13T16:21:56.117Z,6.13
2023-03-13T16:24:28.666Z,6.13
2023-03-13T16:26:58.826Z,6.17
2023-03-13T16:29:28.900Z,6.16
2023-03-13T16:31:59.204Z,6.15
2023-03-13T16:34:29.408Z,6.21
2023-03-13T16:36:59.526Z,6.23
2023-03-13T16:39:29.810Z,6.27
2023-03-13T16:41:59.941Z,6.28
2023-03-13T16:44:30.065Z,6.32
2023-03-13T16:47:05.893Z,6.31
2023-03-13T16:49:36.473Z,6.30
2023-03-13T16:52:09.931Z,6.34
2023-03-13T16:54:40.105Z,6.35
2023-03-13T16:57:21.108Z,6.39
2023-03-13T16:59:52.411Z,6.43
2023-03-13T17:02:22.767Z,6.42
2023-03-13T17:04:54.552Z,6.40
2023-03-13T17:07:28.124Z,6.44
2023-03-13T17:09:58.273Z,6.43
2023-03-13T17:12:28.428Z,6.39
2023-03-13T17:14:58.568Z,6.40
2023-03-13T17:17:29.772Z,6.44
2023-03-13T17:19:59.894Z,6.45
2023-03-13T17:22:29.995Z,6.42
2023-03-13T17:25:00.153Z,6.36
2023-03-13T17:27:30.724Z,6.34
2023-03-13T17:30:01.083Z,6.35
2023-03-13T17:32:31.310Z,6.36
2023-03-13T17:35:01.609Z,6.38
2023-03-13T17:37:36.110Z,6.42
2023-03-13T17:40:19.542Z,6.43
2023-03-13T17:42:50.257Z,6.45
2023-03-13T17:45:20.403Z,6.44
2023-03-13T17:47:50.771Z,6.45
2023-03-13T17:50:22.743Z,6.50
2023-03-13T17:52:53.336Z,6.53
2023-03-13T17:55:23.933Z,6.50
2023-03-13T17:57:54.243Z,6.57
2023-03-13T18:00:26.013Z,6.57
2023-03-13T18:02:56.957Z,6.61
2023-03-13T18:05:27.784Z,6.66
2023-03-13T18:07:58.076Z,6.65
2023-03-13T18:10:29.593Z,6.65
2023-03-13T18:12:59.728Z,6.70
2023-03-13T18:15:29.830Z,6.68
2023-03-13T18:18:00.019Z,6.74
2023-03-13T18:20:32.571Z,6.74
2023-03-13T18:23:04.007Z,6.67
2023-03-13T18:25:34.171Z,6.69
2023-03-13T18:28:04.478Z,6.70
2023-03-13T18:30:34.718Z,6.65
2023-03-13T18:33:04.929Z,6.71
2023-03-13T18:35:36.680Z,6.71
2023-03-13T18:38:08.562Z,6.74
2023-03-13T18:40:38.697Z,6.74
2023-03-13T18:43:08.879Z,6.65
2023-03-13T18:45:39.442Z,6.71
2023-03-13T18:48:12.701Z,6.73
2023-03-13T18:50:42.852Z,6.69
2023-03-13T18:53:13.010Z,6.64
2023-03-13T18:55:43.196Z,6.63
2023-03-13T18:58:13.668Z,6.58
2023-03-13T19:00:43.926Z,6.64
2023-03-13T19:03:14.225Z,6.57
2023-03-13T19:05:44.534Z,6.58
2023-03-13T19:08:14.921Z,6.56
2023-03-13T19:10:45.259Z,6.54
2023-03-13T19:13:15.544Z,6.54
2023-03-13T19:15:45.736Z,6.55
2023-03-13T19:18:15.894Z,6.52
2023-03-13T19:20:46.001Z,6.52
2023-03-13T19:23:16.107Z,6.54
2023-03-13T19:25:46.202Z,6.48
2023-03-13T19:28:16.750Z,6.51
2023-03-13T19:30:47.918Z,6.51
2023-03-13T19:33:17.984Z,6.51
2023-03-13T19:35:48.361Z,6.53
2023-03-13T19:38:18.545Z,6.51
2023-03-13T19:40:48.782Z,6.52
2023-03-13T19:43:18.874Z,6.52
2023-03-13T19:45:49.122Z,6.55
2023-03-13T19:48:19.357Z,6.54
2023-03-13T19:50:49.437Z,6.51
2023-03-13T19:53:19.510Z,6.52
2023-03-13T19:55:50.022Z,6.50
2023-03-13T19:58:20.141Z,6.51
2023-03-13T20:00:50.217Z,6.43
2023-03-13T20:03:20.513Z,6.50
2023-03-13T20:05:51.576Z,6.51
2023-03-13T20:08:21.980Z,6.46
2023-03-13T20:10:52.130Z,6.52
2023-03-13T20:13:22.414Z,6.49
2023-03-13T20:15:52.562Z,6.51
2023-03-13T20:18:22.718Z,6.52
2023-03-13T20:20:52.875Z,6.56
2023-03-13T20:23:23.099Z,6.51
2023-03-13T20:25:53.292Z,6.56
2023-03-13T20:28:26.143Z,6.56
2023-03-13T20:30:56.447Z,6.59
2023-03-13T20:33:26.625Z,6.59
2023-03-13T20:36:02.057Z,6.61
2023-03-13T20:38:35.699Z,6.58
2023-03-13T20:41:10.626Z,6.62
2023-03-13T20:43:40.967Z,6.66
2023-03-13T20:46:11.329Z,6.64
2023-03-13T20:48:42.582Z,6.67
2023-03-13T20:51:13.360Z,6.66
2023-03-13T20:53:43.540Z,6.69
2023-03-13T20:56:13.688Z,6.72
2023-03-13T20:58:43.799Z,6.74
2023-03-13T21:01:13.990Z,6.72
2023-03-13T21:03:44.364Z,6.75
2023-03-13T21:06:18.039Z,6.79
2023-03-13T21:08:48.207Z,6.81
2023-03-13T21:11:20.812Z,6.83
2023-03-13T21:13:51.646Z,6.82
2023-03-13T21:16:21.831Z,6.76
2023-03-13T21:18:52.740Z,6.83
2023-03-13T21:21:22.934Z,6.80
2023-03-13T21:23:53.352Z,6.86
2023-03-13T21:26:23.515Z,6.88
2023-03-13T21:28:53.646Z,6.86
2023-03-13T21:31:23.834Z,6.82
2023-03-13T21:33:53.984Z,6.85
2023-03-13T21:36:24.134Z,6.91
2023-03-13T21:38:54.389Z,6.81
2023-03-13T21:41:24.532Z,6.92
2023-03-13T21:43:56.382Z,6.92
2023-03-13T21:46:33.261Z,6.84
2023-03-13T21:49:03.727Z,6.91
2023-03-13T21:51:34.567Z,6.89
2023-03-13T21:54:05.122Z,6.89
2023-03-13T21:56:35.285Z,6.92
2023-03-13T21:59:05.402Z,6.92
2023-03-13T22:01:36.257Z,6.93
2023-03-13T22:04:06.572Z,6.96
2023-03-13T22:06:36.838Z,6.93
2023-03-13T22:09:08.565Z,6.95
2023-03-13T22:11:38.629Z,6.98
2023-03-13T22:14:08.766Z,7.05
2023-03-13T22:16:38.901Z,7.02
2023-03-13T22:19:12.086Z,7.04
2023-03-13T22:21:42.151Z,6.99
2023-03-13T22:24:12.757Z,7.04
2023-03-13T22:26:42.906Z,7.02
2023-03-13T22:29:13.165Z,6.96
2023-03-13T22:31:43.713Z,6.98
2023-03-13T22:34:13.797Z,6.98
2023-03-13T22:36:43.939Z,6.97
2023-03-13T22:39:14.058Z,6.99
2023-03-13T22:41:44.231Z,6.98
2023-03-13T22:44:14.422Z,6.96
2023-03-13T22:46:44.697Z,6.96
2023-03-13T22:49:14.864Z,6.98
2023-03-13T22:51:44.958Z,6.98
2023-03-13T22:54:15.116Z,6.95
2023-03-13T22:56:45.225Z,6.99
2023-03-13T22:59:15.377Z,7.01
2023-03-13T23:01:45.725Z,6.98
2023-03-13T23:04:15.994Z,6.97
2023-03-13T23:06:46.178Z,6.94
2023-03-13T23:09:16.404Z,6.95
2023-03-13T23:11:46.557Z,6.90
2023-03-13T23:14:16.740Z,6.93
2023-03-13T23:16:47.145Z,6.91
2023-03-13T23:19:17.371Z,6.89
2023-03-13T23:21:47.580Z,6.87
2023-03-13T23:24:17.743Z,6.88
2023-03-13T23:26:47.885Z,6.88
2023-03-13T23:29:18.085Z,6.88
2023-03-13T23:31:48.380Z,6.87
2023-03-13T23:34:22.097Z,6.87
2023-03-13T23:36:52.251Z,6.90
2023-03-13T23:39:22.390Z,6.88
2023-03-13T23:41:52.454Z,6.81
2023-03-13T23:44:22.610Z,6.89
2023-03-13T23:46:52.706Z,6.83
2023-03-13T23:49:22.890Z,6.91
2023-03-13T23:51:53.063Z,6.91
2023-03-13T23:54:23.474Z,6.89
2023-03-13T23:56:53.664Z,6.89
2023-03-13T23:59:23.845Z,6.87
